Time;durP1;ratioP1;P1;durP2;ratioP2;P2;SDS_P1;SDS_P2;PMS_P1;PMS_P2;Temp;Humidity;BMP_temperature;BMP_pressure;BME280_temperature;BME280_humidity;BME280_pressure;Samples;Min_cycle;Max_cycle;Signal;HPM_P1;HPM_P2
2022/08/07 00:01:44;;;;;;;2.78;1.27;;;;;;;;;;5110310;28;20040;-74
2022/08/07 00:04:30;;;;;;;2.63;1.30;;;;;;;;;;5094145;27;20059;-74
2022/08/07 00:07:16;;;;;;;2.55;1.45;;;;;;;;;;5088785;28;20023;-73
2022/08/07 00:10:02;;;;;;;2.05;1.52;;;;;;;;;;5080978;28;20023;-73
2022/08/07 00:12:51;;;;;;;3.60;1.65;;;;;;;;;;5089898;28;20019;-74
2022/08/07 00:15:36;;;;;;;1.63;1.20;;;;;;;;;;5076580;28;20023;-74
2022/08/07 00:18:23;;;;;;;2.67;1.67;;;;;;;;;;5084550;28;20285;-74
2022/08/07 00:21:09;;;;;;;3.95;1.55;;;;;;;;;;5091889;28;20051;-66
2022/08/07 00:23:54;;;;;;;2.05;1.30;;;;;;;;;;5089781;28;20051;-71
2022/08/07 00:26:40;;;;;;;1.92;1.30;;;;;;;;;;5091326;28;20023;-72
2022/08/07 00:29:28;;;;;;;4.13;2.58;;;;;;;;;;5103099;28;20024;-71
2022/08/07 00:32:13;;;;;;;3.17;2.00;;;;;;;;;;5089877;28;20117;-71
2022/08/07 00:34:59;;;;;;;2.63;1.67;;;;;;;;;;5102928;28;20024;-71
2022/08/07 00:37:45;;;;;;;6.78;2.55;;;;;;;;;;5079227;28;20148;-74
2022/08/07 00:40:30;;;;;;;4.88;2.50;;;;;;;;;;5093434;28;20039;-66
2022/08/07 00:43:16;;;;;;;3.85;1.90;;;;;;;;;;5090296;28;20055;-66
2022/08/07 00:46:02;;;;;;;2.80;1.73;;;;;;;;;;5102587;28;20070;-67
2022/08/07 00:48:47;;;;;;;1.60;1.30;;;;;;;;;;5090192;28;20035;-68
2022/08/07 00:51:33;;;;;;;3.25;1.33;;;;;;;;;;5090521;28;20088;-66
2022/08/07 00:54:19;;;;;;;7.90;3.58;;;;;;;;;;5091108;28;20114;-65
2022/08/07 00:57:05;;;;;;;3.58;1.90;;;;;;;;;;5084764;28;20028;-67
2022/08/07 00:59:51;;;;;;;2.05;1.67;;;;;;;;;;5088783;28;20052;-69
2022/08/07 01:02:37;;;;;;;2.92;1.63;;;;;;;;;;5089564;28;20024;-69
2022/08/07 01:05:23;;;;;;;4.88;1.20;;;;;;;;;;5092813;28;20102;-69
2022/08/07 01:08:09;;;;;;;1.98;1.45;;;;;;;;;;5085316;28;20066;-70
2022/08/07 01:10:55;;;;;;;2.15;1.55;;;;;;;;;;5090485;28;20033;-69
2022/08/07 01:13:40;;;;;;;4.32;1.52;;;;;;;;;;5086590;28;20378;-70
2022/08/07 01:16:27;;;;;;;2.20;1.50;;;;;;;;;;5091261;28;20043;-71
2022/08/07 01:19:13;;;;;;;2.63;1.52;;;;;;;;;;5091142;28;20345;-74
2022/08/07 01:21:59;;;;;;;3.17;1.20;;;;;;;;;;5089583;28;20026;-74
2022/08/07 01:24:45;;;;;;;4.35;2.20;;;;;;;;;;5086770;28;20508;-74
2022/08/07 01:27:31;;;;;;;3.85;2.10;;;;;;;;;;5089767;28;20114;-74
2022/08/07 01:30:17;;;;;;;3.90;1.77;;;;;;;;;;5086576;28;20391;-74
2022/08/07 01:33:02;;;;;;;2.50;1.48;;;;;;;;;;5090430;28;20391;-65
2022/08/07 01:35:48;;;;;;;3.00;1.85;;;;;;;;;;5090504;28;20035;-71
2022/08/07 01:38:34;;;;;;;4.72;1.50;;;;;;;;;;5081272;28;20059;-72
2022/08/07 01:41:20;;;;;;;2.60;1.70;;;;;;;;;;5085767;28;20119;-71
2022/08/07 01:44:05;;;;;;;3.58;2.28;;;;;;;;;;5086507;28;20024;-72
2022/08/07 01:46:51;;;;;;;3.58;1.50;;;;;;;;;;5086416;28;20056;-71
2022/08/07 01:49:37;;;;;;;2.58;1.40;;;;;;;;;;5081470;28;20024;-73
2022/08/07 01:52:23;;;;;;;4.15;1.63;;;;;;;;;;5088972;28;20028;-75
2022/08/07 01:55:10;;;;;;;2.40;1.88;;;;;;;;;;5079350;28;20031;-73
2022/08/07 01:57:57;;;;;;;2.63;1.63;;;;;;;;;;5095047;28;20077;-71
2022/08/07 02:00:45;;;;;;;1.73;1.38;;;;;;;;;;5086970;28;20069;-72
2022/08/07 02:03:32;;;;;;;4.45;1.50;;;;;;;;;;5091232;28;20133;-72
2022/08/07 02:06:20;;;;;;;2.25;1.45;;;;;;;;;;5090603;28;20026;-73
2022/08/07 02:09:08;;;;;;;2.58;1.60;;;;;;;;;;5083956;28;20036;-72
2022/08/07 02:11:55;;;;;;;1.90;1.17;;;;;;;;;;5088933;28;20024;-71
2022/08/07 02:14:40;;;;;;;3.50;1.40;;;;;;;;;;5090820;28;20020;-66
2022/08/07 02:17:26;;;;;;;1.98;1.40;;;;;;;;;;5092744;28;20059;-65
2022/08/07 02:20:12;;;;;;;1.52;1.25;;;;;;;;;;5089818;28;20037;-65
2022/08/07 02:23:01;;;;;;;1.73;1.58;;;;;;;;;;5089923;28;20479;-66
2022/08/07 02:25:47;;;;;;;2.15;1.50;;;;;;;;;;5090846;28;20030;-66
2022/08/07 02:28:33;;;;;;;1.88;1.48;;;;;;;;;;5094696;28;20043;-71
2022/08/07 02:31:19;;;;;;;3.80;1.70;;;;;;;;;;5090003;28;20031;-77
2022/08/07 02:34:05;;;;;;;1.50;1.40;;;;;;;;;;5079660;28;20020;-77
2022/08/07 02:36:51;;;;;;;1.88;1.65;;;;;;;;;;5090813;28;20036;-77
2022/08/07 02:39:38;;;;;;;2.97;1.73;;;;;;;;;;5083648;27;20102;-77
2022/08/07 02:42:23;;;;;;;2.78;1.75;;;;;;;;;;5089035;28;20027;-77
2022/08/07 02:45:10;;;;;;;2.42;1.60;;;;;;;;;;5082883;28;20058;-75
2022/08/07 02:47:56;;;;;;;1.63;1.50;;;;;;;;;;5083112;28;20052;-77
2022/08/07 02:50:43;;;;;;;2.42;1.50;;;;;;;;;;5094011;27;20089;-71
2022/08/07 02:53:31;;;;;;;2.72;1.45;;;;;;;;;;5094955;28;20016;-72
2022/08/07 02:56:18;;;;;;;3.88;1.75;;;;;;;;;;5097587;28;20106;-72
2022/08/07 02:59:06;;;;;;;1.85;1.38;;;;;;;;;;5093509;28;20074;-72
2022/08/07 03:01:53;;;;;;;3.95;2.03;;;;;;;;;;5088499;28;20142;-72
2022/08/07 03:04:40;;;;;;;4.10;1.60;;;;;;;;;;5091260;28;20038;-73
2022/08/07 03:07:26;;;;;;;2.17;1.90;;;;;;;;;;5087780;28;20149;-74
2022/08/07 03:10:12;;;;;;;3.55;1.77;;;;;;;;;;5088059;28;20024;-71
2022/08/07 03:12:58;;;;;;;6.97;2.15;;;;;;;;;;5071298;28;20621;-72
2022/08/07 03:15:44;;;;;;;1.85;1.33;;;;;;;;;;5071922;28;20035;-70
2022/08/07 03:18:30;;;;;;;2.85;1.50;;;;;;;;;;5065623;28;20031;-71
2022/08/07 03:21:16;;;;;;;1.95;1.45;;;;;;;;;;5087757;28;20086;-72
2022/08/07 03:24:01;;;;;;;3.17;1.70;;;;;;;;;;5089872;28;20030;-74
2022/08/07 03:26:51;;;;;;;1.83;1.38;;;;;;;;;;5091765;28;20054;-74
2022/08/07 03:29:39;;;;;;;2.38;1.55;;;;;;;;;;5092472;28;20058;-74
2022/08/07 03:32:26;;;;;;;2.20;1.30;;;;;;;;;;5084131;28;20124;-75
2022/08/07 03:35:13;;;;;;;2.03;1.50;;;;;;;;;;5091089;28;20030;-74
2022/08/07 03:38:01;;;;;;;4.43;1.38;;;;;;;;;;5092426;28;20046;-75
2022/08/07 03:40:49;;;;;;;3.05;1.55;;;;;;;;;;5092381;28;20028;-75
2022/08/07 03:43:35;;;;;;;4.13;1.75;;;;;;;;;;5093957;27;20051;-75
2022/08/07 03:46:22;;;;;;;2.33;1.40;;;;;;;;;;5082450;28;20425;-71
2022/08/07 03:49:08;;;;;;;4.03;1.73;;;;;;;;;;5075474;28;20024;-71
2022/08/07 03:51:54;;;;;;;3.22;1.70;;;;;;;;;;5097974;28;20532;-71
2022/08/07 03:54:39;;;;;;;3.92;2.17;;;;;;;;;;5090268;28;20026;-71
2022/08/07 03:57:26;;;;;;;2.92;1.38;;;;;;;;;;5093454;28;20036;-72
2022/08/07 04:00:12;;;;;;;1.52;1.20;;;;;;;;;;5089771;28;20040;-68
2022/08/07 04:02:58;;;;;;;2.08;1.30;;;;;;;;;;5092310;28;20019;-73
2022/08/07 04:05:43;;;;;;;2.25;1.35;;;;;;;;;;5092195;28;20465;-73
2022/08/07 04:08:29;;;;;;;2.63;1.63;;;;;;;;;;5088221;28;20050;-73
2022/08/07 04:11:15;;;;;;;2.13;1.50;;;;;;;;;;5091152;28;20410;-75
2022/08/07 04:14:01;;;;;;;2.22;1.70;;;;;;;;;;5092343;28;20028;-75
2022/08/07 04:16:48;;;;;;;3.10;1.60;;;;;;;;;;5089211;28;20027;-74
2022/08/07 04:19:34;;;;;;;2.85;1.40;;;;;;;;;;5106815;28;20413;-67
2022/08/07 04:22:20;;;;;;;2.40;1.55;;;;;;;;;;5090953;28;20019;-68
2022/08/07 04:25:07;;;;;;;3.65;1.50;;;;;;;;;;5093400;27;20028;-65
2022/08/07 04:27:52;;;;;;;3.28;1.40;;;;;;;;;;5095925;28;20111;-65
2022/08/07 04:30:39;;;;;;;4.80;1.42;;;;;;;;;;5091598;28;20095;-66
2022/08/07 04:33:25;;;;;;;4.07;1.50;;;;;;;;;;5091423;28;20077;-67
2022/08/07 04:36:13;;;;;;;2.53;1.67;;;;;;;;;;5081685;28;20063;-67
2022/08/07 04:38:59;;;;;;;7.60;1.85;;;;;;;;;;5090003;28;20085;-67
2022/08/07 04:41:44;;;;;;;4.00;1.75;;;;;;;;;;5088121;28;20530;-73
2022/08/07 04:44:30;;;;;;;2.70;1.63;;;;;;;;;;5078919;28;20020;-74
2022/08/07 04:47:21;;;;;;;1.35;1.13;;;;;;;;;;5090795;28;20114;-73
2022/08/07 04:50:10;;;;;;;2.35;1.40;;;;;;;;;;5081553;28;20032;-74
2022/08/07 04:53:03;;;;;;;2.10;1.35;;;;;;;;;;5090025;28;20023;-74
2022/08/07 04:55:51;;;;;;;2.83;1.63;;;;;;;;;;5090203;28;20032;-73
2022/08/07 04:58:41;;;;;;;2.90;2.03;;;;;;;;;;5093498;28;20086;-74
2022/08/07 05:01:26;;;;;;;4.13;1.33;;;;;;;;;;5088419;28;20027;-74
2022/08/07 05:04:17;;;;;;;2.55;1.65;;;;;;;;;;5092479;28;20020;-74
2022/08/07 05:07:09;;;;;;;2.47;1.58;;;;;;;;;;5089294;28;20103;-74
2022/08/07 05:10:14;;;;;;;2.42;1.40;;;;;;;;;;5091122;28;20016;-73
2022/08/07 05:13:08;;;;;;;4.32;1.60;;;;;;;;;;5089042;28;20024;-74
2022/08/07 05:15:55;;;;;;;1.98;1.50;;;;;;;;;;5080855;28;20073;-66
2022/08/07 05:19:00;;;;;;;3.03;1.45;;;;;;;;;;5077915;28;20016;-71
2022/08/07 05:21:48;;;;;;;2.53;1.42;;;;;;;;;;5090644;28;20085;-70
2022/08/07 05:24:35;;;;;;;1.77;1.30;;;;;;;;;;5084656;28;20019;-70
2022/08/07 05:27:21;;;;;;;3.45;1.40;;;;;;;;;;5096169;28;20051;-69
2022/08/07 05:30:07;;;;;;;2.08;1.30;;;;;;;;;;5086465;28;20491;-69
2022/08/07 05:32:54;;;;;;;3.60;1.17;;;;;;;;;;5091661;28;20501;-72
2022/08/07 05:35:40;;;;;;;4.03;1.27;;;;;;;;;;5104088;28;20028;-71
2022/08/07 05:38:27;;;;;;;3.80;1.52;;;;;;;;;;5095477;28;20065;-70
2022/08/07 05:41:12;;;;;;;2.13;1.33;;;;;;;;;;5086631;28;20039;-71
2022/08/07 05:43:58;;;;;;;2.03;1.58;;;;;;;;;;5088294;28;20391;-72
2022/08/07 05:46:46;;;;;;;2.20;1.30;;;;;;;;;;5087357;28;20079;-71
2022/08/07 05:49:32;;;;;;;1.30;1.20;;;;;;;;;;5088914;28;20495;-71
2022/08/07 05:52:18;;;;;;;1.20;1.10;;;;;;;;;;5091552;28;20382;-77
2022/08/07 05:55:04;;;;;;;1.92;1.35;;;;;;;;;;5092604;28;20112;-72
2022/08/07 05:57:51;;;;;;;2.33;1.30;;;;;;;;;;5092312;28;20020;-71
2022/08/07 06:00:37;;;;;;;2.05;1.50;;;;;;;;;;5089624;28;20491;-71
2022/08/07 06:03:23;;;;;;;4.03;1.50;;;;;;;;;;5086563;28;20017;-70
2022/08/07 06:06:10;;;;;;;3.03;1.33;;;;;;;;;;5092143;28;20055;-71
2022/08/07 06:08:56;;;;;;;1.90;1.40;;;;;;;;;;5089312;28;20058;-76
2022/08/07 06:11:42;;;;;;;2.45;1.63;;;;;;;;;;5086443;28;20020;-78
2022/08/07 06:14:27;;;;;;;5.68;1.70;;;;;;;;;;5085838;28;20028;-71
2022/08/07 06:17:18;;;;;;;2.17;1.77;;;;;;;;;;5090328;28;20024;-71
2022/08/07 06:20:04;;;;;;;1.65;1.30;;;;;;;;;;5084738;28;20456;-73
2022/08/07 06:22:50;;;;;;;2.72;1.30;;;;;;;;;;5091106;28;20103;-72
2022/08/07 06:25:38;;;;;;;4.85;1.67;;;;;;;;;;5102266;28;20438;-73
2022/08/07 06:28:24;;;;;;;3.50;1.80;;;;;;;;;;5104818;28;20051;-72
2022/08/07 06:31:10;;;;;;;1.95;1.30;;;;;;;;;;5093916;28;20448;-70
2022/08/07 06:33:55;;;;;;;2.50;2.15;;;;;;;;;;5093931;28;20059;-70
2022/08/07 06:36:41;;;;;;;3.20;1.63;;;;;;;;;;5093277;28;20058;-70
2022/08/07 06:39:27;;;;;;;2.30;2.10;;;;;;;;;;5093156;28;20012;-70
2022/08/07 06:42:24;;;;;;;4.07;2.25;;;;;;;;;;5095612;28;20038;-71
2022/08/07 06:45:12;;;;;;;3.08;1.90;;;;;;;;;;5090988;28;20036;-70
2022/08/07 06:47:57;;;;;;;3.70;2.10;;;;;;;;;;5093229;28;20058;-67
2022/08/07 06:50:44;;;;;;;2.28;1.77;;;;;;;;;;5090539;28;20031;-72
2022/08/07 06:53:30;;;;;;;3.95;2.17;;;;;;;;;;5103306;28;20027;-72
2022/08/07 06:56:16;;;;;;;3.55;2.25;;;;;;;;;;5093803;28;20119;-71
2022/08/07 06:59:01;;;;;;;3.40;1.80;;;;;;;;;;5095727;28;20069;-73
2022/08/07 07:01:48;;;;;;;2.85;2.10;;;;;;;;;;5092474;28;20040;-72
2022/08/07 07:04:34;;;;;;;2.45;1.90;;;;;;;;;;5092261;28;20093;-66
2022/08/07 07:07:19;;;;;;;4.43;2.47;;;;;;;;;;5092940;28;20024;-68
2022/08/07 07:10:05;;;;;;;2.58;2.17;;;;;;;;;;5092704;28;20552;-67
2022/08/07 07:12:52;;;;;;;3.40;2.10;;;;;;;;;;5088292;28;20024;-67
2022/08/07 07:15:43;;;;;;;4.75;2.50;;;;;;;;;;5094305;28;20073;-69
2022/08/07 07:18:30;;;;;;;2.28;1.90;;;;;;;;;;5094851;27;20110;-67
2022/08/07 07:21:21;;;;;;;4.00;2.30;;;;;;;;;;5094667;27;20078;-67
2022/08/07 07:24:09;;;;;;;3.28;1.98;;;;;;;;;;5091115;28;20038;-72
2022/08/07 07:26:55;;;;;;;2.05;1.60;;;;;;;;;;5092846;28;20456;-75
2022/08/07 07:29:44;;;;;;;1.90;1.73;;;;;;;;;;5090500;28;20020;-75
2022/08/07 07:32:32;;;;;;;7.22;2.35;;;;;;;;;;5079347;28;20016;-74
2022/08/07 07:35:18;;;;;;;2.90;1.92;;;;;;;;;;5091556;28;20393;-75
2022/08/07 07:38:05;;;;;;;3.70;1.70;;;;;;;;;;5092448;28;20050;-74
2022/08/07 07:40:53;;;;;;;2.42;1.70;;;;;;;;;;5094269;28;20039;-75
2022/08/07 07:43:40;;;;;;;3.28;1.90;;;;;;;;;;5093427;28;20031;-77
2022/08/07 07:46:30;;;;;;;4.80;1.92;;;;;;;;;;5081666;28;20020;-76
2022/08/07 07:49:17;;;;;;;2.47;2.00;;;;;;;;;;5092838;28;20506;-78
2022/08/07 07:52:03;;;;;;;1.67;1.55;;;;;;;;;;5090330;28;20490;-76
2022/08/07 07:54:50;;;;;;;4.90;1.70;;;;;;;;;;5080541;28;20024;-78
2022/08/07 07:57:36;;;;;;;2.60;1.40;;;;;;;;;;5095733;28;20027;-77
2022/08/07 08:00:23;;;;;;;1.48;1.25;;;;;;;;;;5090093;28;20051;-71
2022/08/07 08:03:10;;;;;;;2.03;1.45;;;;;;;;;;5092295;28;20024;-75
2022/08/07 08:05:55;;;;;;;4.60;1.75;;;;;;;;;;5091510;28;20031;-76
2022/08/07 08:08:42;;;;;;;1.88;1.38;;;;;;;;;;5091842;28;20016;-75
2022/08/07 08:11:28;;;;;;;1.63;1.45;;;;;;;;;;5090745;28;20050;-75
2022/08/07 08:14:14;;;;;;;1.75;1.40;;;;;;;;;;5089656;28;20075;-75
2022/08/07 08:17:00;;;;;;;2.60;1.13;;;;;;;;;;5089548;28;20058;-76
2022/08/07 08:19:48;;;;;;;2.20;1.10;;;;;;;;;;5090341;28;20028;-76
2022/08/07 08:28:48;;;;;;;2.13;1.35;;;;;;;;;;5091198;28;20028;-76
2022/08/07 08:31:37;;;;;;;2.50;1.25;;;;;;;;;;5090552;28;20063;-76
2022/08/07 08:34:23;;;;;;;1.75;1.20;;;;;;;;;;5088334;28;20107;-76
2022/08/07 08:37:10;;;;;;;1.23;1.10;;;;;;;;;;5088347;28;20127;-73
2022/08/07 08:39:56;;;;;;;1.70;0.90;;;;;;;;;;5089835;28;20032;-76
2022/08/07 08:43:00;;;;;;;2.60;1.00;;;;;;;;;;5086286;28;20020;-76
2022/08/07 08:45:52;;;;;;;2.28;1.30;;;;;;;;;;5089852;28;20035;-78
2022/08/07 08:48:41;;;;;;;1.38;1.13;;;;;;;;;;5090704;28;20562;-76
2022/08/07 08:51:53;;;;;;;1.00;0.90;;;;;;;;;;5087101;28;20024;-76
2022/08/07 08:54:42;;;;;;;2.00;1.00;;;;;;;;;;5089230;28;20040;-73
2022/08/07 08:57:39;;;;;;;2.58;1.17;;;;;;;;;;5090666;28;20051;-77
2022/08/07 09:00:25;;;;;;;1.63;1.00;;;;;;;;;;5044401;28;1105077;-71
2022/08/07 09:03:24;;;;;;;1.00;0.90;;;;;;;;;;5077714;28;20107;-71
2022/08/07 09:06:09;;;;;;;;;;;;;;;;;;5089959;28;20024;-72
2022/08/07 09:08:58;;;;;;;1.33;0.90;;;;;;;;;;5091740;28;19911;-71
2022/08/07 09:11:49;;;;;;;1.85;1.02;;;;;;;;;;5080532;28;20028;-71
2022/08/07 09:14:39;;;;;;;2.60;0.90;;;;;;;;;;5090942;28;20016;-74
2022/08/07 09:17:24;;;;;;;1.10;1.00;;;;;;;;;;5092628;28;20058;-74
2022/08/07 09:20:16;;;;;;;1.52;0.85;;;;;;;;;;5075913;28;20043;-76
2022/08/07 09:23:05;;;;;;;1.00;0.80;;;;;;;;;;5079506;28;20106;-75
2022/08/07 09:26:09;;;;;;;1.88;1.10;;;;;;;;;;5079150;28;20073;-73
2022/08/07 09:28:58;;;;;;;0.65;0.60;;;;;;;;;;5085315;28;20114;-74
2022/08/07 09:31:43;;;;;;;;;;;;;;;;;;5088652;28;20028;-73
2022/08/07 09:34:49;;;;;;;2.80;1.00;;;;;;;;;;5084078;28;20386;-68
2022/08/07 09:37:40;;;;;;;3.58;1.48;;;;;;;;;;5077737;28;20028;-66
2022/08/07 09:40:45;;;;;;;2.53;1.00;;;;;;;;;;5089758;28;20487;-68
2022/08/07 09:43:35;;;;;;;1.50;1.02;;;;;;;;;;5085462;28;20023;-68
2022/08/07 09:46:35;;;;;;;3.10;0.80;;;;;;;;;;5089653;28;20016;-70
2022/08/07 09:49:39;;;;;;;1.38;0.90;;;;;;;;;;5086262;28;20077;-68
2022/08/07 09:52:29;;;;;;;2.63;1.00;;;;;;;;;;5091982;28;20497;-67
2022/08/07 09:55:22;;;;;;;4.65;1.05;;;;;;;;;;5082787;28;20024;-66
2022/08/07 09:58:08;;;;;;;1.63;1.00;;;;;;;;;;5086156;28;20414;-65
2022/08/07 10:01:01;;;;;;;3.33;1.20;;;;;;;;;;5093788;28;20067;-66
2022/08/07 10:03:58;;;;;;;2.88;0.90;;;;;;;;;;5088478;27;20063;-66
2022/08/07 10:07:03;;;;;;;2.20;1.10;;;;;;;;;;5092668;28;20084;-66
2022/08/07 10:09:48;;;;;;;5.00;1.15;;;;;;;;;;5099601;28;20027;-74
2022/08/07 10:12:54;;;;;;;2.42;0.82;;;;;;;;;;5088555;28;20050;-76
2022/08/07 10:15:44;;;;;;;0.82;0.82;;;;;;;;;;5088233;28;20538;-76
2022/08/07 10:18:48;;;;;;;2.58;1.00;;;;;;;;;;5084792;28;20028;-76
2022/08/07 10:21:41;;;;;;;1.92;1.00;;;;;;;;;;5102313;28;20028;-76
2022/08/07 10:24:31;;;;;;;3.83;1.10;;;;;;;;;;5094001;28;20474;-75
2022/08/07 10:27:17;;;;;;;1.60;1.35;;;;;;;;;;5091014;28;20024;-71
2022/08/07 10:30:07;;;;;;;1.65;0.98;;;;;;;;;;5089217;28;20379;-76
2022/08/07 10:32:53;;;;;;;2.47;0.80;;;;;;;;;;5094582;28;20051;-77
2022/08/07 10:36:03;;;;;;;2.70;1.02;;;;;;;;;;5087984;28;20024;-77
2022/08/07 10:39:02;;;;;;;1.55;0.73;;;;;;;;;;5093019;28;20020;-75
2022/08/07 10:42:06;;;;;;;2.05;0.80;;;;;;;;;;5084332;28;20035;-75
2022/08/07 10:45:10;;;;;;;3.60;0.98;;;;;;;;;;5082484;28;20119;-74
2022/08/07 10:48:00;;;;;;;1.00;0.88;;;;;;;;;;5085441;28;20020;-66
2022/08/07 10:50:46;;;;;;;1.00;0.60;;;;;;;;;;5092805;28;20595;-72
2022/08/07 10:53:47;;;;;;;0.77;0.70;;;;;;;;;;5094260;28;20424;-72
2022/08/07 10:56:35;;;;;;;2.03;1.30;;;;;;;;;;5094024;28;20110;-72
2022/08/07 10:59:23;;;;;;;3.30;0.82;;;;;;;;;;5091484;28;20093;-71
2022/08/07 11:02:15;;;;;;;1.70;0.85;;;;;;;;;;5086408;28;20085;-71
2022/08/07 11:05:20;;;;;;;1.98;0.93;;;;;;;;;;5087578;28;20736;-76
2022/08/07 11:08:24;;;;;;;1.02;0.68;;;;;;;;;;5092685;28;20390;-76
2022/08/07 11:11:15;;;;;;;1.20;0.90;;;;;;;;;;5085987;28;20043;-77
2022/08/07 11:14:04;;;;;;;1.27;0.70;;;;;;;;;;5092651;28;20437;-77
2022/08/07 11:16:49;;;;;;;;;;;;;;;;;;5084915;28;20020;-75
2022/08/07 11:19:38;;;;;;;2.50;0.90;;;;;;;;;;5091266;28;19912;-76
2022/08/07 11:22:26;;;;;;;2.00;0.80;;;;;;;;;;5087166;28;20055;-66
2022/08/07 11:25:15;;;;;;;1.33;1.23;;;;;;;;;;5090930;28;20024;-75
2022/08/07 11:28:07;;;;;;;3.08;0.85;;;;;;;;;;5092414;28;20031;-76
2022/08/07 11:30:58;;;;;;;3.20;0.98;;;;;;;;;;5084032;28;20415;-77
2022/08/07 11:33:53;;;;;;;1.95;0.70;;;;;;;;;;5095326;28;20126;-76
2022/08/07 11:36:51;;;;;;;1.13;1.02;;;;;;;;;;5079550;28;20020;-76
2022/08/07 11:39:52;;;;;;;1.33;0.80;;;;;;;;;;5088957;28;20088;-75
2022/08/07 11:42:57;;;;;;;1.08;0.85;;;;;;;;;;5085864;28;20078;-76
2022/08/07 11:46:01;;;;;;;1.00;0.90;;;;;;;;;;5091740;28;20157;-73
2022/08/07 11:48:47;;;;;;;2.67;1.00;;;;;;;;;;5093331;28;20052;-74
2022/08/07 11:51:42;;;;;;;1.38;0.77;;;;;;;;;;5086764;28;20024;-72
2022/08/07 11:54:46;;;;;;;0.80;0.80;;;;;;;;;;5092048;28;20494;-73
2022/08/07 11:57:43;;;;;;;1.83;0.90;;;;;;;;;;5095112;28;20062;-72
2022/08/07 12:00:41;;;;;;;2.70;0.90;;;;;;;;;;5093869;28;20150;-71
2022/08/07 12:03:37;;;;;;;0.80;0.68;;;;;;;;;;5088802;28;20020;-73
2022/08/07 12:06:41;;;;;;;3.35;1.15;;;;;;;;;;5093697;27;20548;-72
2022/08/07 12:09:26;;;;;;;1.08;0.80;;;;;;;;;;5090323;28;20028;-72
2022/08/07 12:12:18;;;;;;;1.33;0.90;;;;;;;;;;5092348;28;20032;-72
2022/08/07 12:15:10;;;;;;;4.03;0.93;;;;;;;;;;5093669;28;20059;-73
2022/08/07 12:18:14;;;;;;;1.83;1.00;;;;;;;;;;5091344;28;20028;-66
2022/08/07 12:21:09;;;;;;;1.65;1.00;;;;;;;;;;5092114;28;20036;-75
2022/08/07 12:24:13;;;;;;;1.40;0.93;;;;;;;;;;5088621;28;20051;-75
2022/08/07 12:26:59;;;;;;;1.60;0.82;;;;;;;;;;5086102;28;20020;-75
2022/08/07 12:29:47;;;;;;;2.20;1.25;;;;;;;;;;5097238;28;20039;-75
2022/08/07 12:32:52;;;;;;;2.45;1.10;;;;;;;;;;5087492;28;20030;-75
2022/08/07 12:35:38;;;;;;;2.63;0.80;;;;;;;;;;5089132;28;20394;-75
2022/08/07 12:38:25;;;;;;;1.00;0.77;;;;;;;;;;5088832;28;20015;-71
2022/08/07 12:41:11;;;;;;;1.00;0.77;;;;;;;;;;5080792;28;20047;-76
2022/08/07 12:43:58;;;;;;;2.58;1.10;;;;;;;;;;5089600;28;20928;-76
2022/08/07 12:46:55;;;;;;;2.95;0.77;;;;;;;;;;5091387;28;20097;-76
2022/08/07 12:49:41;;;;;;;0.63;0.63;;;;;;;;;;5091092;28;20020;-76
2022/08/07 12:52:27;;;;;;;2.67;1.00;;;;;;;;;;5093348;28;20028;-76
2022/08/07 12:55:16;;;;;;;1.58;0.98;;;;;;;;;;5090839;28;20384;-75
2022/08/07 12:58:04;;;;;;;2.83;1.10;;;;;;;;;;5085659;28;20415;-76
2022/08/07 13:00:53;;;;;;;2.67;0.95;;;;;;;;;;5092227;28;20529;-76
2022/08/07 13:04:03;;;;;;;2.20;0.85;;;;;;;;;;5090788;28;20019;-79
2022/08/07 13:06:52;;;;;;;1.08;0.82;;;;;;;;;;5079087;28;20054;-77
2022/08/07 13:10:00;;;;;;;0.73;0.73;;;;;;;;;;5087079;28;20027;-77
2022/08/07 13:12:57;;;;;;;2.63;0.97;;;;;;;;;;5088872;28;20028;-68
2022/08/07 13:15:43;;;;;;;2.20;0.93;;;;;;;;;;5080611;27;20268;-72
2022/08/07 13:18:28;;;;;;;0.90;0.90;;;;;;;;;;5077085;28;20123;-73
2022/08/07 13:21:32;;;;;;;2.42;1.63;;;;;;;;;;5093329;28;20046;-73
2022/08/07 13:24:26;;;;;;;3.15;1.17;;;;;;;;;;5089491;28;20023;-73
2022/08/07 13:27:16;;;;;;;1.67;1.00;;;;;;;;;;5092735;28;20163;-72
2022/08/07 13:30:04;;;;;;;1.10;1.00;;;;;;;;;;5087963;28;20016;-72
2022/08/07 13:32:49;;;;;;;1.23;0.90;;;;;;;;;;5086665;28;20016;-68
2022/08/07 13:35:36;;;;;;;2.13;1.23;;;;;;;;;;5091167;28;20027;-67
2022/08/07 13:38:25;;;;;;;1.45;1.10;;;;;;;;;;5092311;28;20358;-66
2022/08/07 13:41:16;;;;;;;3.22;1.05;;;;;;;;;;5090387;28;20028;-67
2022/08/07 13:44:03;;;;;;;2.30;0.90;;;;;;;;;;5085807;28;20151;-66
2022/08/07 13:46:53;;;;;;;2.25;1.05;;;;;;;;;;5089776;28;20081;-67
2022/08/07 13:49:42;;;;;;;2.78;0.95;;;;;;;;;;5087822;28;20020;-76
2022/08/07 13:52:32;;;;;;;1.52;1.00;;;;;;;;;;5090158;28;20081;-77
2022/08/07 13:55:19;;;;;;;0.77;0.70;;;;;;;;;;5081075;28;20021;-76
2022/08/07 14:01:13;;;;;;;2.05;0.98;;;;;;;;;;5078823;28;20044;-77
2022/08/07 14:04:01;;;;;;;0.93;0.82;;;;;;;;;;5082847;28;20414;-78
2022/08/07 14:06:48;;;;;;;3.10;1.20;;;;;;;;;;5089325;28;20028;-81
2022/08/07 14:09:36;;;;;;;1.17;0.93;;;;;;;;;;5082934;28;20379;-74
2022/08/07 14:12:24;;;;;;;1.38;0.90;;;;;;;;;;5083692;28;20055;-72
2022/08/07 14:15:18;;;;;;;1.77;1.00;;;;;;;;;;5086540;28;20155;-72
2022/08/07 14:18:07;;;;;;;1.80;1.20;;;;;;;;;;5090862;28;20151;-72
2022/08/07 14:20:57;;;;;;;2.78;0.93;;;;;;;;;;5086690;28;20032;-71
2022/08/07 14:23:48;;;;;;;1.98;1.33;;;;;;;;;;5087716;28;20133;-70
2022/08/07 14:26:36;;;;;;;1.23;0.80;;;;;;;;;;5089540;28;20060;-74
2022/08/07 14:29:26;;;;;;;3.65;1.10;;;;;;;;;;5093442;28;20088;-72
2022/08/07 14:32:13;;;;;;;2.30;1.10;;;;;;;;;;5089435;28;20047;-73
2022/08/07 14:35:01;;;;;;;1.48;0.88;;;;;;;;;;5087368;28;20059;-62
2022/08/07 14:37:52;;;;;;;1.95;1.35;;;;;;;;;;5090269;28;20023;-62
2022/08/07 14:40:38;;;;;;;2.67;1.00;;;;;;;;;;5082236;28;20089;-60
2022/08/07 14:43:26;;;;;;;1.77;1.23;;;;;;;;;;5087149;28;20420;-62
2022/08/07 14:46:15;;;;;;;1.05;0.98;;;;;;;;;;5086720;28;20397;-61
2022/08/07 14:49:01;;;;;;;1.70;1.38;;;;;;;;;;5107528;28;20034;-65
2022/08/07 14:51:47;;;;;;;1.83;1.23;;;;;;;;;;5086483;28;20024;-67
2022/08/07 14:54:35;;;;;;;1.30;1.00;;;;;;;;;;5093072;28;20032;-66
2022/08/07 14:57:22;;;;;;;1.10;0.85;;;;;;;;;;5094450;28;20011;-65
2022/08/07 15:00:08;;;;;;;1.15;0.90;;;;;;;;;;5095424;28;20055;-66
2022/08/07 15:02:55;;;;;;;1.35;1.00;;;;;;;;;;5095750;28;20012;-67
2022/08/07 15:05:41;;;;;;;2.40;0.85;;;;;;;;;;5085684;28;20427;-59
2022/08/07 15:08:29;;;;;;;1.05;0.75;;;;;;;;;;5089576;28;20074;-62
2022/08/07 15:11:17;;;;;;;1.20;1.10;;;;;;;;;;5088048;28;20028;-62
2022/08/07 15:14:04;;;;;;;2.35;1.20;;;;;;;;;;5091921;28;20024;-60
2022/08/07 15:16:52;;;;;;;8.35;1.15;;;;;;;;;;5088661;28;20020;-61
2022/08/07 15:19:48;;;;;;;1.00;0.90;;;;;;;;;;5092400;27;20030;-61
2022/08/07 15:22:43;;;;;;;2.33;1.13;;;;;;;;;;5085518;28;20028;-64
2022/08/07 15:25:36;;;;;;;1.60;1.25;;;;;;;;;;5087068;28;20027;-60
2022/08/07 15:28:25;;;;;;;1.33;0.90;;;;;;;;;;5093693;28;20508;-60
2022/08/07 15:31:13;;;;;;;4.63;1.20;;;;;;;;;;5087040;28;20118;-59
2022/08/07 15:34:00;;;;;;;0.95;0.88;;;;;;;;;;5090802;28;20063;-59
2022/08/07 15:36:47;;;;;;;2.75;1.13;;;;;;;;;;5090316;28;20016;-60
2022/08/07 15:39:39;;;;;;;2.53;1.10;;;;;;;;;;5087914;27;20024;-61
2022/08/07 15:42:35;;;;;;;3.05;1.15;;;;;;;;;;5091642;28;20471;-68
2022/08/07 15:45:21;;;;;;;6.22;1.10;;;;;;;;;;5085889;28;20032;-63
2022/08/07 15:48:13;;;;;;;2.10;1.52;;;;;;;;;;5088244;28;20590;-61
2022/08/07 15:51:04;;;;;;;1.92;1.40;;;;;;;;;;5081365;28;20020;-61
2022/08/07 15:53:52;;;;;;;1.38;1.10;;;;;;;;;;5074667;28;20038;-63
2022/08/07 15:56:40;;;;;;;1.30;1.15;;;;;;;;;;5081022;28;20020;-62
2022/08/07 15:59:26;;;;;;;1.48;1.00;;;;;;;;;;5073688;28;20560;-60
2022/08/07 16:02:22;;;;;;;3.47;1.10;;;;;;;;;;5079892;28;20048;-62
2022/08/07 16:05:18;;;;;;;3.47;1.40;;;;;;;;;;5079852;28;20009;-66
2022/08/07 16:08:10;;;;;;;2.40;1.15;;;;;;;;;;5077268;28;20039;-62
2022/08/07 16:11:03;;;;;;;1.23;1.00;;;;;;;;;;5078557;28;20028;-62
2022/08/07 16:13:51;;;;;;;1.50;1.38;;;;;;;;;;5082548;28;20020;-63
2022/08/07 16:17:01;;;;;;;3.08;1.20;;;;;;;;;;5083146;28;20066;-61
2022/08/07 16:20:00;;;;;;;3.65;1.88;;;;;;;;;;5084335;28;21294;-61
2022/08/07 16:22:49;;;;;;;1.67;1.20;;;;;;;;;;5091306;28;20121;-60
2022/08/07 16:25:34;;;;;;;2.13;1.42;;;;;;;;;;5084034;28;20024;-60
2022/08/07 16:28:20;;;;;;;4.60;1.20;;;;;;;;;;5100967;28;20028;-61
2022/08/07 16:31:14;;;;;;;1.33;1.05;;;;;;;;;;5086996;28;20031;-61
2022/08/07 16:34:02;;;;;;;2.30;1.30;;;;;;;;;;5089003;28;20098;-61
2022/08/07 16:36:51;;;;;;;2.83;1.23;;;;;;;;;;5092868;28;20034;-56
2022/08/07 16:39:55;;;;;;;2.30;1.42;;;;;;;;;;5083362;28;20085;-60
2022/08/07 16:42:43;;;;;;;1.35;1.23;;;;;;;;;;5085153;28;20058;-60
2022/08/07 16:46:01;;;;;;;2.27;1.20;;;;;;;;;;5092395;28;20020;-60
2022/08/07 16:49:01;;;;;;;2.40;1.38;;;;;;;;;;5074719;28;20162;-60
2022/08/07 16:51:59;;;;;;;1.83;1.25;;;;;;;;;;5081797;28;20027;-61
2022/08/07 16:54:59;;;;;;;1.60;1.45;;;;;;;;;;5087089;28;20028;-71
2022/08/07 16:57:52;;;;;;;1.88;1.30;;;;;;;;;;5093636;28;20035;-59
2022/08/07 17:00:39;;;;;;;3.38;1.48;;;;;;;;;;5083836;28;20044;-59
2022/08/07 17:03:48;;;;;;;3.50;1.35;;;;;;;;;;5084325;28;20028;-62
2022/08/07 17:06:40;;;;;;;1.65;1.38;;;;;;;;;;5089875;28;20107;-62